sensor_id;sensor_type;location;lat;lon;timestamp;P1;durP1;ratioP1;P2;durP2;ratioP2
19111;SDS011;9688;51.906;8.376;2024-01-11T00:00:46;52.37;;;20.73;;
19111;SDS011;9688;51.906;8.376;2024-01-11T00:03:32;51.87;;;20.67;;
19111;SDS011;9688;51.906;8.376;2024-01-11T00:06:19;49.67;;;20.50;;
19111;SDS011;9688;51.906;8.376;2024-01-11T00:09:04;51.37;;;19.03;;
19111;SDS011;9688;51.906;8.376;2024-01-11T00:11:50;48.20;;;20.10;;
19111;SDS011;9688;51.906;8.376;2024-01-11T00:14:35;53.00;;;19.60;;
19111;SDS011;9688;51.906;8.376;2024-01-11T00:17:21;51.97;;;20.40;;
19111;SDS011;9688;51.906;8.376;2024-01-11T00:20:07;49.83;;;20.13;;
19111;SDS011;9688;51.906;8.376;2024-01-11T00:22:54;51.93;;;20.27;;
19111;SDS011;9688;51.906;8.376;2024-01-11T00:25:40;44.40;;;18.73;;
19111;SDS011;9688;51.906;8.376;2024-01-11T00:28:25;51.73;;;19.73;;
19111;SDS011;9688;51.906;8.376;2024-01-11T00:31:11;50.80;;;19.40;;
19111;SDS011;9688;51.906;8.376;2024-01-11T00:33:56;46.87;;;19.17;;
19111;SDS011;9688;51.906;8.376;2024-01-11T00:36:42;47.33;;;19.83;;
19111;SDS011;9688;51.906;8.376;2024-01-11T00:39:28;47.83;;;21.20;;
19111;SDS011;9688;51.906;8.376;2024-01-11T00:42:14;53.50;;;20.43;;
19111;SDS011;9688;51.906;8.376;2024-01-11T00:45:00;47.57;;;20.17;;
19111;SDS011;9688;51.906;8.376;2024-01-11T00:47:45;44.30;;;19.47;;
19111;SDS011;9688;51.906;8.376;2024-01-11T00:50:30;56.73;;;21.57;;
19111;SDS011;9688;51.906;8.376;2024-01-11T00:53:16;53.13;;;20.70;;
19111;SDS011;9688;51.906;8.376;2024-01-11T00:56:03;57.47;;;21.80;;
19111;SDS011;9688;51.906;8.376;2024-01-11T00:58:49;49.57;;;20.30;;
19111;SDS011;9688;51.906;8.376;2024-01-11T01:01:34;53.23;;;20.40;;
19111;SDS011;9688;51.906;8.376;2024-01-11T01:04:20;49.50;;;21.53;;
19111;SDS011;9688;51.906;8.376;2024-01-11T01:07:05;53.27;;;21.00;;
19111;SDS011;9688;51.906;8.376;2024-01-11T01:09:51;50.27;;;20.77;;
19111;SDS011;9688;51.906;8.376;2024-01-11T01:12:38;54.37;;;21.73;;
19111;SDS011;9688;51.906;8.376;2024-01-11T01:15:24;41.00;;;18.23;;
19111;SDS011;9688;51.906;8.376;2024-01-11T01:18:09;52.87;;;19.97;;
19111;SDS011;9688;51.906;8.376;2024-01-11T01:20:55;48.43;;;20.00;;
19111;SDS011;9688;51.906;8.376;2024-01-11T01:23:41;57.83;;;21.43;;
19111;SDS011;9688;51.906;8.376;2024-01-11T01:26:26;52.77;;;23.30;;
19111;SDS011;9688;51.906;8.376;2024-01-11T01:29:13;53.83;;;22.67;;
19111;SDS011;9688;51.906;8.376;2024-01-11T01:31:59;52.87;;;22.37;;
19111;SDS011;9688;51.906;8.376;2024-01-11T01:34:44;55.83;;;21.10;;
19111;SDS011;9688;51.906;8.376;2024-01-11T01:37:30;53.07;;;22.30;;
19111;SDS011;9688;51.906;8.376;2024-01-11T01:40:15;52.67;;;20.87;;
19111;SDS011;9688;51.906;8.376;2024-01-11T01:43:00;56.63;;;22.40;;
19111;SDS011;9688;51.906;8.376;2024-01-11T01:45:48;59.87;;;22.20;;
19111;SDS011;9688;51.906;8.376;2024-01-11T01:48:33;59.50;;;22.63;;
19111;SDS011;9688;51.906;8.376;2024-01-11T01:51:19;54.13;;;20.80;;
19111;SDS011;9688;51.906;8.376;2024-01-11T01:54:05;53.07;;;21.63;;
19111;SDS011;9688;51.906;8.376;2024-01-11T01:56:51;51.43;;;21.17;;
19111;SDS011;9688;51.906;8.376;2024-01-11T01:59:37;47.20;;;20.33;;
19111;SDS011;9688;51.906;8.376;2024-01-11T02:02:25;51.77;;;21.13;;
19111;SDS011;9688;51.906;8.376;2024-01-11T02:05:12;60.67;;;21.90;;
19111;SDS011;9688;51.906;8.376;2024-01-11T02:07:59;56.17;;;21.57;;
19111;SDS011;9688;51.906;8.376;2024-01-11T02:10:48;54.47;;;21.27;;
19111;SDS011;9688;51.906;8.376;2024-01-11T02:13:34;57.33;;;21.93;;
19111;SDS011;9688;51.906;8.376;2024-01-11T02:16:20;59.90;;;21.27;;
19111;SDS011;9688;51.906;8.376;2024-01-11T02:19:07;59.00;;;22.50;;
19111;SDS011;9688;51.906;8.376;2024-01-11T02:21:56;51.67;;;21.37;;
19111;SDS011;9688;51.906;8.376;2024-01-11T02:24:47;56.10;;;21.43;;
19111;SDS011;9688;51.906;8.376;2024-01-11T02:27:44;52.20;;;21.43;;
19111;SDS011;9688;51.906;8.376;2024-01-11T02:30:30;52.50;;;21.00;;
19111;SDS011;9688;51.906;8.376;2024-01-11T02:33:15;51.30;;;20.63;;
19111;SDS011;9688;51.906;8.376;2024-01-11T02:36:03;52.07;;;21.90;;
19111;SDS011;9688;51.906;8.376;2024-01-11T02:38:49;56.53;;;22.73;;
19111;SDS011;9688;51.906;8.376;2024-01-11T02:41:37;48.60;;;20.87;;
19111;SDS011;9688;51.906;8.376;2024-01-11T02:44:23;54.50;;;21.93;;
19111;SDS011;9688;51.906;8.376;2024-01-11T02:47:08;53.53;;;21.70;;
19111;SDS011;9688;51.906;8.376;2024-01-11T02:49:54;50.10;;;21.37;;
19111;SDS011;9688;51.906;8.376;2024-01-11T02:52:39;56.23;;;21.40;;
19111;SDS011;9688;51.906;8.376;2024-01-11T02:55:25;49.17;;;19.73;;
19111;SDS011;9688;51.906;8.376;2024-01-11T02:58:11;53.20;;;22.30;;
19111;SDS011;9688;51.906;8.376;2024-01-11T03:00:57;61.80;;;21.87;;
19111;SDS011;9688;51.906;8.376;2024-01-11T03:03:42;52.77;;;21.20;;
19111;SDS011;9688;51.906;8.376;2024-01-11T03:06:27;52.40;;;21.27;;
19111;SDS011;9688;51.906;8.376;2024-01-11T03:09:13;50.77;;;21.53;;
19111;SDS011;9688;51.906;8.376;2024-01-11T03:11:58;50.57;;;19.77;;
19111;SDS011;9688;51.906;8.376;2024-01-11T03:14:45;61.90;;;21.07;;
19111;SDS011;9688;51.906;8.376;2024-01-11T03:17:30;56.33;;;22.50;;
19111;SDS011;9688;51.906;8.376;2024-01-11T03:20:16;52.83;;;21.90;;
19111;SDS011;9688;51.906;8.376;2024-01-11T03:23:04;56.73;;;22.07;;
19111;SDS011;9688;51.906;8.376;2024-01-11T03:25:49;52.30;;;21.67;;
19111;SDS011;9688;51.906;8.376;2024-01-11T03:28:35;57.47;;;21.17;;
19111;SDS011;9688;51.906;8.376;2024-01-11T03:31:21;54.77;;;21.10;;
19111;SDS011;9688;51.906;8.376;2024-01-11T03:34:07;47.80;;;20.70;;
19111;SDS011;9688;51.906;8.376;2024-01-11T03:36:52;57.87;;;22.40;;
19111;SDS011;9688;51.906;8.376;2024-01-11T03:39:38;53.40;;;20.97;;
19111;SDS011;9688;51.906;8.376;2024-01-11T03:42:23;60.73;;;21.67;;
19111;SDS011;9688;51.906;8.376;2024-01-11T03:45:09;54.30;;;22.33;;
19111;SDS011;9688;51.906;8.376;2024-01-11T03:47:56;56.43;;;22.07;;
19111;SDS011;9688;51.906;8.376;2024-01-11T03:50:41;55.13;;;22.67;;
19111;SDS011;9688;51.906;8.376;2024-01-11T03:53:26;55.47;;;21.93;;
19111;SDS011;9688;51.906;8.376;2024-01-11T03:56:12;56.00;;;21.13;;
19111;SDS011;9688;51.906;8.376;2024-01-11T03:58:57;49.40;;;20.67;;
19111;SDS011;9688;51.906;8.376;2024-01-11T04:01:43;54.20;;;21.53;;
19111;SDS011;9688;51.906;8.376;2024-01-11T04:04:30;48.60;;;20.47;;
19111;SDS011;9688;51.906;8.376;2024-01-11T04:07:16;48.50;;;20.77;;
19111;SDS011;9688;51.906;8.376;2024-01-11T04:10:01;50.80;;;21.73;;
19111;SDS011;9688;51.906;8.376;2024-01-11T04:12:48;58.17;;;21.00;;
19111;SDS011;9688;51.906;8.376;2024-01-11T04:15:33;61.43;;;21.60;;
19111;SDS011;9688;51.906;8.376;2024-01-11T04:18:18;53.27;;;20.97;;
19111;SDS011;9688;51.906;8.376;2024-01-11T04:21:05;56.10;;;21.67;;
19111;SDS011;9688;51.906;8.376;2024-01-11T04:23:50;50.83;;;21.10;;
19111;SDS011;9688;51.906;8.376;2024-01-11T04:26:36;50.90;;;22.50;;
19111;SDS011;9688;51.906;8.376;2024-01-11T04:29:21;51.63;;;21.40;;
19111;SDS011;9688;51.906;8.376;2024-01-11T04:32:06;51.13;;;21.47;;
19111;SDS011;9688;51.906;8.376;2024-01-11T04:34:52;55.10;;;20.73;;
19111;SDS011;9688;51.906;8.376;2024-01-11T04:37:39;55.17;;;22.33;;
19111;SDS011;9688;51.906;8.376;2024-01-11T04:40:24;56.40;;;21.83;;
19111;SDS011;9688;51.906;8.376;2024-01-11T04:43:09;49.77;;;20.47;;
19111;SDS011;9688;51.906;8.376;2024-01-11T04:45:54;51.10;;;21.17;;
19111;SDS011;9688;51.906;8.376;2024-01-11T04:48:40;52.50;;;20.97;;
19111;SDS011;9688;51.906;8.376;2024-01-11T04:51:26;50.87;;;21.57;;
19111;SDS011;9688;51.906;8.376;2024-01-11T04:54:13;54.43;;;22.50;;
19111;SDS011;9688;51.906;8.376;2024-01-11T04:56:59;51.13;;;21.50;;
19111;SDS011;9688;51.906;8.376;2024-01-11T04:59:44;53.37;;;20.00;;
19111;SDS011;9688;51.906;8.376;2024-01-11T05:02:30;53.13;;;22.57;;
19111;SDS011;9688;51.906;8.376;2024-01-11T05:05:17;52.00;;;21.33;;
19111;SDS011;9688;51.906;8.376;2024-01-11T05:08:03;55.67;;;21.47;;
19111;SDS011;9688;51.906;8.376;2024-01-11T05:10:50;51.40;;;20.87;;
19111;SDS011;9688;51.906;8.376;2024-01-11T05:13:35;46.63;;;21.13;;
19111;SDS011;9688;51.906;8.376;2024-01-11T05:16:21;52.03;;;21.87;;
19111;SDS011;9688;51.906;8.376;2024-01-11T05:19:09;55.23;;;21.77;;
19111;SDS011;9688;51.906;8.376;2024-01-11T05:21:54;51.07;;;21.97;;
19111;SDS011;9688;51.906;8.376;2024-01-11T05:24:40;49.87;;;20.40;;
19111;SDS011;9688;51.906;8.376;2024-01-11T05:27:27;47.73;;;20.57;;
19111;SDS011;9688;51.906;8.376;2024-01-11T05:30:13;51.30;;;21.97;;
19111;SDS011;9688;51.906;8.376;2024-01-11T05:32:59;53.63;;;21.60;;
19111;SDS011;9688;51.906;8.376;2024-01-11T05:35:44;52.67;;;21.93;;
19111;SDS011;9688;51.906;8.376;2024-01-11T05:38:30;51.97;;;21.13;;
19111;SDS011;9688;51.906;8.376;2024-01-11T05:41:15;49.40;;;20.20;;
19111;SDS011;9688;51.906;8.376;2024-01-11T05:44:02;52.33;;;22.63;;
19111;SDS011;9688;51.906;8.376;2024-01-11T05:46:48;58.87;;;21.10;;
19111;SDS011;9688;51.906;8.376;2024-01-11T05:49:33;54.47;;;22.03;;
19111;SDS011;9688;51.906;8.376;2024-01-11T05:52:19;56.33;;;21.60;;
19111;SDS011;9688;51.906;8.376;2024-01-11T05:55:04;51.43;;;21.53;;
19111;SDS011;9688;51.906;8.376;2024-01-11T05:57:50;51.77;;;21.30;;
19111;SDS011;9688;51.906;8.376;2024-01-11T06:00:37;57.70;;;22.47;;
19111;SDS011;9688;51.906;8.376;2024-01-11T06:03:23;54.37;;;22.97;;
19111;SDS011;9688;51.906;8.376;2024-01-11T06:06:09;56.40;;;22.67;;
19111;SDS011;9688;51.906;8.376;2024-01-11T06:08:55;50.83;;;23.37;;
19111;SDS011;9688;51.906;8.376;2024-01-11T06:11:40;56.63;;;24.00;;
19111;SDS011;9688;51.906;8.376;2024-01-11T06:14:26;59.10;;;23.13;;
19111;SDS011;9688;51.906;8.376;2024-01-11T06:17:13;58.13;;;22.70;;
19111;SDS011;9688;51.906;8.376;2024-01-11T06:19:58;59.53;;;23.37;;
19111;SDS011;9688;51.906;8.376;2024-01-11T06:22:45;58.63;;;23.13;;
19111;SDS011;9688;51.906;8.376;2024-01-11T06:25:34;56.00;;;21.90;;
19111;SDS011;9688;51.906;8.376;2024-01-11T06:28:20;54.20;;;22.37;;
19111;SDS011;9688;51.906;8.376;2024-01-11T06:31:05;54.80;;;23.10;;
19111;SDS011;9688;51.906;8.376;2024-01-11T06:33:52;53.53;;;23.40;;
19111;SDS011;9688;51.906;8.376;2024-01-11T06:36:37;56.90;;;23.13;;
19111;SDS011;9688;51.906;8.376;2024-01-11T06:39:23;60.00;;;22.83;;
19111;SDS011;9688;51.906;8.376;2024-01-11T06:42:08;52.23;;;22.00;;
19111;SDS011;9688;51.906;8.376;2024-01-11T06:44:54;49.33;;;22.03;;
19111;SDS011;9688;51.906;8.376;2024-01-11T06:47:39;59.43;;;22.53;;
19111;SDS011;9688;51.906;8.376;2024-01-11T06:50:26;51.37;;;21.27;;
19111;SDS011;9688;51.906;8.376;2024-01-11T06:53:13;49.70;;;21.90;;
19111;SDS011;9688;51.906;8.376;2024-01-11T06:55:58;61.20;;;22.80;;
19111;SDS011;9688;51.906;8.376;2024-01-11T06:58:44;52.40;;;21.47;;
19111;SDS011;9688;51.906;8.376;2024-01-11T07:01:30;53.07;;;22.30;;
19111;SDS011;9688;51.906;8.376;2024-01-11T07:04:16;53.70;;;21.77;;
19111;SDS011;9688;51.906;8.376;2024-01-11T07:07:03;58.63;;;21.77;;
19111;SDS011;9688;51.906;8.376;2024-01-11T07:09:49;61.83;;;22.93;;
19111;SDS011;9688;51.906;8.376;2024-01-11T07:12:35;50.00;;;22.50;;
19111;SDS011;9688;51.906;8.376;2024-01-11T07:15:21;50.50;;;21.83;;
19111;SDS011;9688;51.906;8.376;2024-01-11T07:18:07;56.17;;;21.90;;
19111;SDS011;9688;51.906;8.376;2024-01-11T07:20:53;55.33;;;20.67;;
19111;SDS011;9688;51.906;8.376;2024-01-11T07:23:43;53.70;;;22.50;;
19111;SDS011;9688;51.906;8.376;2024-01-11T07:26:28;51.93;;;21.60;;
19111;SDS011;9688;51.906;8.376;2024-01-11T07:29:15;54.57;;;22.83;;
19111;SDS011;9688;51.906;8.376;2024-01-11T07:32:00;58.07;;;23.33;;
19111;SDS011;9688;51.906;8.376;2024-01-11T07:34:47;65.13;;;22.60;;
19111;SDS011;9688;51.906;8.376;2024-01-11T07:37:33;57.50;;;22.40;;
19111;SDS011;9688;51.906;8.376;2024-01-11T07:40:20;57.57;;;21.20;;
19111;SDS011;9688;51.906;8.376;2024-01-11T07:43:05;56.77;;;22.63;;
19111;SDS011;9688;51.906;8.376;2024-01-11T07:45:52;58.37;;;21.93;;
19111;SDS011;9688;51.906;8.376;2024-01-11T07:48:38;49.37;;;22.30;;
19111;SDS011;9688;51.906;8.376;2024-01-11T07:51:23;55.47;;;21.67;;
19111;SDS011;9688;51.906;8.376;2024-01-11T07:54:09;61.63;;;22.83;;
19111;SDS011;9688;51.906;8.376;2024-01-11T07:56:56;56.40;;;23.23;;
19111;SDS011;9688;51.906;8.376;2024-01-11T07:59:42;56.50;;;24.67;;
19111;SDS011;9688;51.906;8.376;2024-01-11T08:02:27;54.33;;;22.60;;
19111;SDS011;9688;51.906;8.376;2024-01-11T08:05:13;55.37;;;22.20;;
19111;SDS011;9688;51.906;8.376;2024-01-11T08:07:59;58.07;;;23.00;;
19111;SDS011;9688;51.906;8.376;2024-01-11T08:10:49;49.17;;;21.60;;
19111;SDS011;9688;51.906;8.376;2024-01-11T08:13:36;60.17;;;23.00;;
19111;SDS011;9688;51.906;8.376;2024-01-11T08:16:22;56.87;;;22.57;;
19111;SDS011;9688;51.906;8.376;2024-01-11T08:19:07;58.20;;;23.13;;
19111;SDS011;9688;51.906;8.376;2024-01-11T08:21:54;56.47;;;22.70;;
19111;SDS011;9688;51.906;8.376;2024-01-11T08:24:40;56.10;;;23.67;;
19111;SDS011;9688;51.906;8.376;2024-01-11T08:27:25;60.73;;;23.00;;
19111;SDS011;9688;51.906;8.376;2024-01-11T08:30:14;57.20;;;22.57;;
19111;SDS011;9688;51.906;8.376;2024-01-11T08:33:00;58.87;;;23.63;;
19111;SDS011;9688;51.906;8.376;2024-01-11T08:35:47;55.30;;;23.17;;
19111;SDS011;9688;51.906;8.376;2024-01-11T08:38:33;53.03;;;22.70;;
19111;SDS011;9688;51.906;8.376;2024-01-11T08:41:19;74.50;;;27.07;;
19111;SDS011;9688;51.906;8.376;2024-01-11T08:44:05;65.63;;;26.70;;
19111;SDS011;9688;51.906;8.376;2024-01-11T08:46:52;62.27;;;23.00;;
19111;SDS011;9688;51.906;8.376;2024-01-11T08:49:38;54.60;;;22.87;;
19111;SDS011;9688;51.906;8.376;2024-01-11T08:52:24;54.20;;;22.40;;
19111;SDS011;9688;51.906;8.376;2024-01-11T08:55:09;56.83;;;23.67;;
19111;SDS011;9688;51.906;8.376;2024-01-11T08:57:56;50.03;;;21.27;;
19111;SDS011;9688;51.906;8.376;2024-01-11T09:00:45;56.27;;;22.93;;
19111;SDS011;9688;51.906;8.376;2024-01-11T09:03:31;55.63;;;23.30;;
19111;SDS011;9688;51.906;8.376;2024-01-11T09:06:17;55.20;;;21.47;;
19111;SDS011;9688;51.906;8.376;2024-01-11T09:09:03;58.30;;;23.47;;
19111;SDS011;9688;51.906;8.376;2024-01-11T09:11:54;56.80;;;22.30;;
19111;SDS011;9688;51.906;8.376;2024-01-11T09:14:42;52.03;;;21.47;;
19111;SDS011;9688;51.906;8.376;2024-01-11T09:17:28;50.57;;;23.03;;
19111;SDS011;9688;51.906;8.376;2024-01-11T09:20:15;53.73;;;21.67;;
19111;SDS011;9688;51.906;8.376;2024-01-11T09:23:03;50.27;;;21.20;;
19111;SDS011;9688;51.906;8.376;2024-01-11T09:25:49;51.13;;;21.90;;
19111;SDS011;9688;51.906;8.376;2024-01-11T09:28:34;50.10;;;21.73;;
19111;SDS011;9688;51.906;8.376;2024-01-11T09:31:20;56.63;;;22.13;;
19111;SDS011;9688;51.906;8.376;2024-01-11T09:34:05;52.47;;;21.60;;
19111;SDS011;9688;51.906;8.376;2024-01-11T09:36:53;48.10;;;21.93;;
19111;SDS011;9688;51.906;8.376;2024-01-11T09:39:43;48.93;;;21.07;;
19111;SDS011;9688;51.906;8.376;2024-01-11T09:42:28;54.93;;;20.73;;
19111;SDS011;9688;51.906;8.376;2024-01-11T09:45:14;46.47;;;20.67;;
19111;SDS011;9688;51.906;8.376;2024-01-11T09:48:03;52.30;;;21.07;;
19111;SDS011;9688;51.906;8.376;2024-01-11T09:50:51;45.07;;;21.67;;
19111;SDS011;9688;51.906;8.376;2024-01-11T09:53:41;51.53;;;21.77;;
19111;SDS011;9688;51.906;8.376;2024-01-11T09:56:29;57.50;;;21.73;;
19111;SDS011;9688;51.906;8.376;2024-01-11T09:59:16;56.37;;;22.50;;
19111;SDS011;9688;51.906;8.376;2024-01-11T10:02:06;58.87;;;23.00;;
19111;SDS011;9688;51.906;8.376;2024-01-11T10:04:55;58.57;;;21.70;;
19111;SDS011;9688;51.906;8.376;2024-01-11T10:07:41;55.37;;;22.00;;
19111;SDS011;9688;51.906;8.376;2024-01-11T10:10:28;60.83;;;21.57;;
19111;SDS011;9688;51.906;8.376;2024-01-11T10:13:15;48.07;;;19.70;;
19111;SDS011;9688;51.906;8.376;2024-01-11T10:16:07;56.20;;;20.90;;
19111;SDS011;9688;51.906;8.376;2024-01-11T10:18:55;55.63;;;21.73;;
19111;SDS011;9688;51.906;8.376;2024-01-11T10:21:44;57.13;;;21.33;;
19111;SDS011;9688;51.906;8.376;2024-01-11T10:24:31;60.80;;;21.77;;
19111;SDS011;9688;51.906;8.376;2024-01-11T10:27:23;58.47;;;20.20;;
19111;SDS011;9688;51.906;8.376;2024-01-11T10:30:17;53.97;;;21.20;;
19111;SDS011;9688;51.906;8.376;2024-01-11T10:33:04;41.73;;;18.87;;
19111;SDS011;9688;51.906;8.376;2024-01-11T10:35:51;49.60;;;19.83;;
19111;SDS011;9688;51.906;8.376;2024-01-11T10:38:38;49.70;;;20.57;;
19111;SDS011;9688;51.906;8.376;2024-01-11T10:41:24;44.43;;;19.63;;
19111;SDS011;9688;51.906;8.376;2024-01-11T10:44:16;47.97;;;18.63;;
19111;SDS011;9688;51.906;8.376;2024-01-11T10:47:05;41.23;;;18.17;;
19111;SDS011;9688;51.906;8.376;2024-01-11T10:49:55;41.47;;;18.67;;
19111;SDS011;9688;51.906;8.376;2024-01-11T10:52:47;46.23;;;17.10;;
19111;SDS011;9688;51.906;8.376;2024-01-11T10:55:39;36.93;;;16.47;;
19111;SDS011;9688;51.906;8.376;2024-01-11T10:58:27;38.73;;;16.40;;
19111;SDS011;9688;51.906;8.376;2024-01-11T11:01:15;33.73;;;16.53;;
19111;SDS011;9688;51.906;8.376;2024-01-11T11:04:02;49.53;;;17.73;;
19111;SDS011;9688;51.906;8.376;2024-01-11T11:06:50;37.83;;;17.00;;
19111;SDS011;9688;51.906;8.376;2024-01-11T11:09:36;41.40;;;18.20;;
19111;SDS011;9688;51.906;8.376;2024-01-11T11:12:28;40.47;;;16.67;;
19111;SDS011;9688;51.906;8.376;2024-01-11T11:15:15;40.03;;;18.43;;
19111;SDS011;9688;51.906;8.376;2024-01-11T11:18:03;36.10;;;16.13;;
19111;SDS011;9688;51.906;8.376;2024-01-11T11:20:51;40.33;;;16.87;;
19111;SDS011;9688;51.906;8.376;2024-01-11T11:23:38;38.40;;;16.30;;
19111;SDS011;9688;51.906;8.376;2024-01-11T11:26:25;40.67;;;17.03;;
19111;SDS011;9688;51.906;8.376;2024-01-11T11:29:11;40.97;;;18.27;;
19111;SDS011;9688;51.906;8.376;2024-01-11T11:31:57;35.87;;;14.30;;
19111;SDS011;9688;51.906;8.376;2024-01-11T11:34:46;25.90;;;12.37;;
19111;SDS011;9688;51.906;8.376;2024-01-11T11:37:33;27.63;;;11.37;;
19111;SDS011;9688;51.906;8.376;2024-01-11T11:40:31;25.13;;;11.73;;
19111;SDS011;9688;51.906;8.376;2024-01-11T11:43:20;29.27;;;12.47;;
19111;SDS011;9688;51.906;8.376;2024-01-11T11:46:06;23.90;;;11.70;;
19111;SDS011;9688;51.906;8.376;2024-01-11T11:48:53;30.60;;;12.63;;
19111;SDS011;9688;51.906;8.376;2024-01-11T11:51:42;24.80;;;11.27;;
19111;SDS011;9688;51.906;8.376;2024-01-11T11:54:28;19.30;;;10.17;;
19111;SDS011;9688;51.906;8.376;2024-01-11T11:57:16;23.47;;;10.77;;
19111;SDS011;9688;51.906;8.376;2024-01-11T12:00:02;22.80;;;10.50;;
19111;SDS011;9688;51.906;8.376;2024-01-11T12:02:50;18.73;;;10.50;;
19111;SDS011;9688;51.906;8.376;2024-01-11T12:05:37;16.87;;;8.80;;
19111;SDS011;9688;51.906;8.376;2024-01-11T12:08:25;20.30;;;9.90;;
19111;SDS011;9688;51.906;8.376;2024-01-11T12:11:14;10.60;;;6.10;;
19111;SDS011;9688;51.906;8.376;2024-01-11T12:14:02;15.40;;;7.80;;
19111;SDS011;9688;51.906;8.376;2024-01-11T12:16:55;17.07;;;8.10;;
19111;SDS011;9688;51.906;8.376;2024-01-11T12:19:42;16.93;;;8.47;;
19111;SDS011;9688;51.906;8.376;2024-01-11T12:22:28;17.13;;;8.83;;
19111;SDS011;9688;51.906;8.376;2024-01-11T12:25:16;13.53;;;7.07;;
19111;SDS011;9688;51.906;8.376;2024-01-11T12:28:01;11.13;;;6.47;;
19111;SDS011;9688;51.906;8.376;2024-01-11T12:30:47;16.17;;;6.47;;
19111;SDS011;9688;51.906;8.376;2024-01-11T12:33:35;15.63;;;6.70;;
19111;SDS011;9688;51.906;8.376;2024-01-11T12:36:21;20.93;;;7.63;;
19111;SDS011;9688;51.906;8.376;2024-01-11T12:39:08;17.13;;;7.87;;
19111;SDS011;9688;51.906;8.376;2024-01-11T12:41:55;15.47;;;8.13;;
19111;SDS011;9688;51.906;8.376;2024-01-11T12:44:42;17.73;;;7.47;;
19111;SDS011;9688;51.906;8.376;2024-01-11T12:47:28;19.53;;;8.27;;
19111;SDS011;9688;51.906;8.376;2024-01-11T12:50:15;19.97;;;8.13;;
19111;SDS011;9688;51.906;8.376;2024-01-11T12:53:05;18.47;;;7.70;;
19111;SDS011;9688;51.906;8.376;2024-01-11T12:56:01;20.67;;;8.57;;
19111;SDS011;9688;51.906;8.376;2024-01-11T12:58:50;28.87;;;10.23;;
19111;SDS011;9688;51.906;8.376;2024-01-11T13:01:35;54.30;;;28.63;;
19111;SDS011;9688;51.906;8.376;2024-01-11T13:04:23;24.03;;;10.97;;
19111;SDS011;9688;51.906;8.376;2024-01-11T13:07:08;22.07;;;10.60;;
19111;SDS011;9688;51.906;8.376;2024-01-11T13:09:54;21.27;;;10.70;;
19111;SDS011;9688;51.906;8.376;2024-01-11T13:12:41;25.10;;;9.87;;
19111;SDS011;9688;51.906;8.376;2024-01-11T13:15:28;22.07;;;8.80;;
19111;SDS011;9688;51.906;8.376;2024-01-11T13:18:15;27.40;;;10.10;;
19111;SDS011;9688;51.906;8.376;2024-01-11T13:21:01;26.53;;;10.57;;
19111;SDS011;9688;51.906;8.376;2024-01-11T13:23:47;24.80;;;10.30;;
19111;SDS011;9688;51.906;8.376;2024-01-11T13:26:33;22.27;;;9.20;;
19111;SDS011;9688;51.906;8.376;2024-01-11T13:29:20;21.27;;;9.70;;
19111;SDS011;9688;51.906;8.376;2024-01-11T13:32:08;23.37;;;9.43;;
19111;SDS011;9688;51.906;8.376;2024-01-11T13:34:54;20.00;;;8.60;;
19111;SDS011;9688;51.906;8.376;2024-01-11T13:37:41;21.00;;;9.80;;
19111;SDS011;9688;51.906;8.376;2024-01-11T13:40:27;22.73;;;9.30;;
19111;SDS011;9688;51.906;8.376;2024-01-11T13:43:15;21.03;;;9.70;;
19111;SDS011;9688;51.906;8.376;2024-01-11T13:46:02;21.50;;;10.23;;
19111;SDS011;9688;51.906;8.376;2024-01-11T13:48:50;24.60;;;10.43;;
19111;SDS011;9688;51.906;8.376;2024-01-11T13:51:37;23.60;;;10.23;;
19111;SDS011;9688;51.906;8.376;2024-01-11T13:54:28;21.27;;;10.00;;
19111;SDS011;9688;51.906;8.376;2024-01-11T13:57:15;26.53;;;10.37;;
19111;SDS011;9688;51.906;8.376;2024-01-11T14:00:01;26.40;;;10.87;;
19111;SDS011;9688;51.906;8.376;2024-01-11T14:02:47;24.80;;;9.60;;
19111;SDS011;9688;51.906;8.376;2024-01-11T14:05:36;21.17;;;9.23;;
19111;SDS011;9688;51.906;8.376;2024-01-11T14:08:27;21.07;;;8.93;;
19111;SDS011;9688;51.906;8.376;2024-01-11T14:11:13;21.30;;;9.17;;
19111;SDS011;9688;51.906;8.376;2024-01-11T14:13:58;20.33;;;8.97;;
19111;SDS011;9688;51.906;8.376;2024-01-11T14:16:44;20.33;;;9.30;;
19111;SDS011;9688;51.906;8.376;2024-01-11T14:19:32;21.57;;;9.20;;
19111;SDS011;9688;51.906;8.376;2024-01-11T14:22:20;26.50;;;10.73;;
19111;SDS011;9688;51.906;8.376;2024-01-11T14:25:07;21.53;;;10.10;;
19111;SDS011;9688;51.906;8.376;2024-01-11T14:27:55;30.33;;;11.60;;
19111;SDS011;9688;51.906;8.376;2024-01-11T14:30:40;22.37;;;10.53;;
19111;SDS011;9688;51.906;8.376;2024-01-11T14:33:26;22.67;;;10.70;;
19111;SDS011;9688;51.906;8.376;2024-01-11T14:36:12;24.53;;;10.23;;
19111;SDS011;9688;51.906;8.376;2024-01-11T14:39:00;31.27;;;10.23;;
19111;SDS011;9688;51.906;8.376;2024-01-11T14:41:59;22.97;;;10.27;;
19111;SDS011;9688;51.906;8.376;2024-01-11T14:45:25;28.17;;;11.40;;
19111;SDS011;9688;51.906;8.376;2024-01-11T14:48:11;25.00;;;10.60;;
19111;SDS011;9688;51.906;8.376;2024-01-11T14:50:57;24.47;;;11.47;;
19111;SDS011;9688;51.906;8.376;2024-01-11T14:53:42;28.37;;;11.77;;
19111;SDS011;9688;51.906;8.376;2024-01-11T14:56:33;27.87;;;11.30;;
19111;SDS011;9688;51.906;8.376;2024-01-11T14:59:19;24.67;;;10.77;;
19111;SDS011;9688;51.906;8.376;2024-01-11T15:02:08;26.53;;;11.27;;
19111;SDS011;9688;51.906;8.376;2024-01-11T15:04:54;34.57;;;12.27;;
19111;SDS011;9688;51.906;8.376;2024-01-11T15:07:40;23.87;;;11.90;;
19111;SDS011;9688;51.906;8.376;2024-01-11T15:10:25;29.37;;;11.83;;
19111;SDS011;9688;51.906;8.376;2024-01-11T15:13:12;26.00;;;11.03;;
19111;SDS011;9688;51.906;8.376;2024-01-11T15:15:58;29.43;;;11.73;;
19111;SDS011;9688;51.906;8.376;2024-01-11T15:18:44;25.73;;;11.27;;
19111;SDS011;9688;51.906;8.376;2024-01-11T15:21:31;30.93;;;12.63;;
19111;SDS011;9688;51.906;8.376;2024-01-11T15:24:17;27.40;;;12.10;;
19111;SDS011;9688;51.906;8.376;2024-01-11T15:27:04;32.90;;;12.27;;
19111;SDS011;9688;51.906;8.376;2024-01-11T15:29:52;30.90;;;11.50;;
19111;SDS011;9688;51.906;8.376;2024-01-11T15:32:38;26.10;;;11.97;;
19111;SDS011;9688;51.906;8.376;2024-01-11T15:35:24;28.83;;;11.30;;
19111;SDS011;9688;51.906;8.376;2024-01-11T15:38:12;32.83;;;14.97;;
19111;SDS011;9688;51.906;8.376;2024-01-11T15:40:59;32.37;;;13.43;;
19111;SDS011;9688;51.906;8.376;2024-01-11T15:43:45;30.13;;;12.70;;
19111;SDS011;9688;51.906;8.376;2024-01-11T15:46:35;30.63;;;12.33;;
19111;SDS011;9688;51.906;8.376;2024-01-11T15:49:23;31.30;;;13.23;;
19111;SDS011;9688;51.906;8.376;2024-01-11T15:52:09;29.17;;;12.47;;
19111;SDS011;9688;51.906;8.376;2024-01-11T15:54:55;29.20;;;12.53;;
19111;SDS011;9688;51.906;8.376;2024-01-11T15:57:43;29.37;;;12.80;;
19111;SDS011;9688;51.906;8.376;2024-01-11T16:00:30;31.47;;;12.73;;
19111;SDS011;9688;51.906;8.376;2024-01-11T16:03:17;30.77;;;12.17;;
19111;SDS011;9688;51.906;8.376;2024-01-11T16:06:03;34.77;;;12.97;;
19111;SDS011;9688;51.906;8.376;2024-01-11T16:08:49;32.67;;;12.73;;
19111;SDS011;9688;51.906;8.376;2024-01-11T16:11:34;31.37;;;13.27;;
19111;SDS011;9688;51.906;8.376;2024-01-11T16:14:21;29.70;;;12.40;;
19111;SDS011;9688;51.906;8.376;2024-01-11T16:17:07;34.23;;;13.40;;
19111;SDS011;9688;51.906;8.376;2024-01-11T16:19:55;35.00;;;13.50;;
19111;SDS011;9688;51.906;8.376;2024-01-11T16:22:43;34.40;;;13.97;;
19111;SDS011;9688;51.906;8.376;2024-01-11T16:25:29;28.53;;;14.00;;
19111;SDS011;9688;51.906;8.376;2024-01-11T16:28:15;34.87;;;14.40;;
19111;SDS011;9688;51.906;8.376;2024-01-11T16:31:01;30.37;;;13.73;;